Lamar, CO

9:55 AM MST on March 04, 2015 (GMT -0700)
Lamar Municipal | Change Station
CLOSE
Current Station
Airport
Location: Lamar,
Elevation: 3704 ft
Nearby Weather Stations

Elev 3704 ft 38.07 °N, 102.69 °W | Updated 8 minutes ago

Overcast
Overcast
23 °F
Feels Like 11 °F
N
13
Wind Variable Wind from ENE

Today
High -- | Low -- °F
--% Chance of Precip.
Yesterday
High -- | Low -- °F
Precip. -- in
6:17 AM 5:46 PM
Waxing Gibbous, 99% visible
Pressure 30.23 in
Visibility 2.0 miles
Clouds Scattered Clouds 1500 ft
Mostly Cloudy 2100 ft
Overcast 3600 ft
Windchill 11 °F
Dew Point 16 °F
Humidity 74%
Rainfall 0.00 in
Snow Depth Not available.
UV 1 out of 12
Pollen 2.40 out of 12
Air Quality Not available.
Flu Activity Not available.
SPECI KLAA 041647Z AUTO 06011KT 2SM -SN SCT015 BKN021 OVC036 M05/M09 A3023 RMK AO2 P0000

More Conditions Fewer Conditions

Pressure 30.23 in
Visibility 2.0 miles
Clouds Scattered Clouds 1500 ft
Mostly Cloudy 2100 ft
Overcast 3600 ft
Windchill 11 °F
Dew Point 16 °F
Humidity 74%
Rainfall 0.00 in
Snow Depth Not available.
UV 1 out of 12
Pollen 2.40 out of 12
Air Quality Not available.
Flu Activity Not available.
SPECI KLAA 041647Z AUTO 06011KT 2SM -SN SCT015 BKN021 OVC036 M05/M09 A3023 RMK AO2 P0000

More Conditions Fewer Conditions

10-Day Weather Forecast

Almanac

Astronomy

Mar. 04, 2015 Rise Set
Actual Time
Civil Twilight
Nautical Twilight
Astronomical Twilight
Moon
Length of Visible Light
Length of Day
Tomorrow will be .
, % of the Moon is Illuminated

Today's Extremes

State Highs State Lows

Community

WunderPhotos

Upload Photos

1,802,503 photos uploaded!

WunderBlogs® & News

Nearby

Air Quality

  Air Quality AQ Index Pollutant
Not available.

Snow Depth

Station Depth Elevation

Earthquake Activity

City Distance Mag. Time & Date
Minimum magnitude displayed is 2.5.

Coastal Water Temperatures

Place Temperature

Nearby Weather Stations